sensor_id;sensor_type;location;lat;lon;timestamp;P1;durP1;ratioP1;P2;durP2;ratioP2
77520;SDS011;66633;47.628;19.158;2023-08-08T00:01:06;1.20;;;0.90;;
77520;SDS011;66633;47.628;19.158;2023-08-08T00:03:32;2.05;;;1.00;;
77520;SDS011;66633;47.628;19.158;2023-08-08T00:05:57;1.75;;;1.10;;
77520;SDS011;66633;47.628;19.158;2023-08-08T00:08:22;4.63;;;1.10;;
77520;SDS011;66633;47.628;19.158;2023-08-08T00:10:47;2.90;;;1.10;;
77520;SDS011;66633;47.628;19.158;2023-08-08T00:13:13;1.53;;;1.00;;
77520;SDS011;66633;47.628;19.158;2023-08-08T00:15:38;2.57;;;1.17;;
77520;SDS011;66633;47.628;19.158;2023-08-08T00:18:03;1.57;;;1.03;;
77520;SDS011;66633;47.628;19.158;2023-08-08T00:20:28;1.80;;;0.90;;
77520;SDS011;66633;47.628;19.158;2023-08-08T00:22:54;1.60;;;0.90;;
77520;SDS011;66633;47.628;19.158;2023-08-08T00:25:19;1.73;;;0.97;;
77520;SDS011;66633;47.628;19.158;2023-08-08T00:27:44;4.00;;;1.10;;
77520;SDS011;66633;47.628;19.158;2023-08-08T00:30:12;2.60;;;1.10;;
77520;SDS011;66633;47.628;19.158;2023-08-08T00:32:38;1.95;;;1.00;;
77520;SDS011;66633;47.628;19.158;2023-08-08T00:35:03;2.42;;;1.02;;
77520;SDS011;66633;47.628;19.158;2023-08-08T00:37:29;2.35;;;1.08;;
77520;SDS011;66633;47.628;19.158;2023-08-08T00:39:54;1.70;;;1.10;;
77520;SDS011;66633;47.628;19.158;2023-08-08T00:42:20;3.35;;;1.10;;
77520;SDS011;66633;47.628;19.158;2023-08-08T00:44:45;1.43;;;1.00;;
77520;SDS011;66633;47.628;19.158;2023-08-08T00:47:10;1.87;;;1.00;;
77520;SDS011;66633;47.628;19.158;2023-08-08T00:49:36;1.58;;;1.00;;
77520;SDS011;66633;47.628;19.158;2023-08-08T00:52:01;2.22;;;1.05;;
77520;SDS011;66633;47.628;19.158;2023-08-08T00:54:27;1.52;;;0.93;;
77520;SDS011;66633;47.628;19.158;2023-08-08T00:56:52;1.40;;;0.90;;
77520;SDS011;66633;47.628;19.158;2023-08-08T00:59:18;3.00;;;1.20;;
77520;SDS011;66633;47.628;19.158;2023-08-08T01:01:43;1.77;;;0.98;;
77520;SDS011;66633;47.628;19.158;2023-08-08T01:04:08;2.97;;;1.00;;
77520;SDS011;66633;47.628;19.158;2023-08-08T01:06:46;2.58;;;1.08;;
77520;SDS011;66633;47.628;19.158;2023-08-08T01:09:17;1.75;;;1.10;;
77520;SDS011;66633;47.628;19.158;2023-08-08T01:11:45;1.90;;;0.93;;
77520;SDS011;66633;47.628;19.158;2023-08-08T01:14:13;1.90;;;0.90;;
77520;SDS011;66633;47.628;19.158;2023-08-08T01:16:38;1.63;;;0.85;;
77520;SDS011;66633;47.628;19.158;2023-08-08T01:19:04;1.55;;;0.95;;
77520;SDS011;66633;47.628;19.158;2023-08-08T01:21:31;2.47;;;0.80;;
77520;SDS011;66633;47.628;19.158;2023-08-08T01:24:40;1.77;;;0.90;;
77520;SDS011;66633;47.628;19.158;2023-08-08T01:26:46;1.77;;;0.90;;
77520;SDS011;66633;47.628;19.158;2023-08-08T01:29:15;1.55;;;1.00;;
77520;SDS011;66633;47.628;19.158;2023-08-08T01:31:40;2.38;;;1.10;;
77520;SDS011;66633;47.628;19.158;2023-08-08T01:34:05;2.60;;;1.10;;
77520;SDS011;66633;47.628;19.158;2023-08-08T01:36:42;1.65;;;0.90;;
77520;SDS011;66633;47.628;19.158;2023-08-08T01:39:11;1.55;;;0.95;;
77520;SDS011;66633;47.628;19.158;2023-08-08T01:41:38;4.43;;;1.15;;
77520;SDS011;66633;47.628;19.158;2023-08-08T01:44:04;3.17;;;1.20;;
77520;SDS011;66633;47.628;19.158;2023-08-08T01:46:31;2.40;;;1.20;;
77520;SDS011;66633;47.628;19.158;2023-08-08T01:48:59;3.83;;;1.10;;
77520;SDS011;66633;47.628;19.158;2023-08-08T01:51:24;2.15;;;1.08;;
77520;SDS011;66633;47.628;19.158;2023-08-08T01:53:51;2.42;;;1.20;;
77520;SDS011;66633;47.628;19.158;2023-08-08T01:56:16;2.08;;;1.00;;
77520;SDS011;66633;47.628;19.158;2023-08-08T01:58:41;2.47;;;1.20;;
77520;SDS011;66633;47.628;19.158;2023-08-08T02:01:07;1.67;;;1.03;;
77520;SDS011;66633;47.628;19.158;2023-08-08T02:03:32;3.10;;;1.20;;
77520;SDS011;66633;47.628;19.158;2023-08-08T02:05:57;3.10;;;1.33;;
77520;SDS011;66633;47.628;19.158;2023-08-08T02:08:22;8.07;;;1.30;;
77520;SDS011;66633;47.628;19.158;2023-08-08T02:10:48;2.60;;;1.30;;
77520;SDS011;66633;47.628;19.158;2023-08-08T02:13:13;2.87;;;1.10;;
77520;SDS011;66633;47.628;19.158;2023-08-08T02:15:38;2.63;;;1.20;;
77520;SDS011;66633;47.628;19.158;2023-08-08T02:18:03;3.27;;;1.23;;
77520;SDS011;66633;47.628;19.158;2023-08-08T02:20:29;3.08;;;1.25;;
77520;SDS011;66633;47.628;19.158;2023-08-08T02:22:54;4.15;;;1.25;;
77520;SDS011;66633;47.628;19.158;2023-08-08T02:25:20;3.17;;;1.30;;
77520;SDS011;66633;47.628;19.158;2023-08-08T02:27:45;2.47;;;1.10;;
77520;SDS011;66633;47.628;19.158;2023-08-08T02:30:10;3.43;;;1.20;;
77520;SDS011;66633;47.628;19.158;2023-08-08T02:32:39;2.13;;;1.00;;
77520;SDS011;66633;47.628;19.158;2023-08-08T02:35:04;4.88;;;1.30;;
77520;SDS011;66633;47.628;19.158;2023-08-08T02:37:29;2.17;;;1.15;;
77520;SDS011;66633;47.628;19.158;2023-08-08T02:39:55;3.95;;;1.33;;
77520;SDS011;66633;47.628;19.158;2023-08-08T02:42:20;3.33;;;1.40;;
77520;SDS011;66633;47.628;19.158;2023-08-08T02:44:45;3.53;;;1.40;;
77520;SDS011;66633;47.628;19.158;2023-08-08T02:47:11;4.00;;;1.40;;
77520;SDS011;66633;47.628;19.158;2023-08-08T02:49:36;2.93;;;1.27;;
77520;SDS011;66633;47.628;19.158;2023-08-08T02:52:01;3.63;;;1.20;;
77520;SDS011;66633;47.628;19.158;2023-08-08T02:54:26;2.55;;;1.30;;
77520;SDS011;66633;47.628;19.158;2023-08-08T02:56:52;1.83;;;1.10;;
77520;SDS011;66633;47.628;19.158;2023-08-08T02:59:17;2.65;;;1.30;;
77520;SDS011;66633;47.628;19.158;2023-08-08T03:01:42;4.90;;;1.50;;
77520;SDS011;66633;47.628;19.158;2023-08-08T03:04:07;2.92;;;1.40;;
77520;SDS011;66633;47.628;19.158;2023-08-08T03:06:33;2.80;;;1.25;;
77520;SDS011;66633;47.628;19.158;2023-08-08T03:08:58;3.50;;;1.30;;
77520;SDS011;66633;47.628;19.158;2023-08-08T03:11:23;2.87;;;1.30;;
77520;SDS011;66633;47.628;19.158;2023-08-08T03:13:49;3.30;;;1.37;;
77520;SDS011;66633;47.628;19.158;2023-08-08T03:16:14;3.13;;;1.30;;
77520;SDS011;66633;47.628;19.158;2023-08-08T03:18:40;3.22;;;1.30;;
77520;SDS011;66633;47.628;19.158;2023-08-08T03:21:05;3.22;;;1.50;;
77520;SDS011;66633;47.628;19.158;2023-08-08T03:23:31;2.35;;;1.15;;
77520;SDS011;66633;47.628;19.158;2023-08-08T03:25:56;4.10;;;1.50;;
77520;SDS011;66633;47.628;19.158;2023-08-08T03:28:21;4.35;;;1.40;;
77520;SDS011;66633;47.628;19.158;2023-08-08T03:30:46;4.80;;;1.43;;
77520;SDS011;66633;47.628;19.158;2023-08-08T03:33:12;7.40;;;1.60;;
77520;SDS011;66633;47.628;19.158;2023-08-08T03:35:37;4.03;;;1.27;;
77520;SDS011;66633;47.628;19.158;2023-08-08T03:38:02;3.17;;;1.50;;
77520;SDS011;66633;47.628;19.158;2023-08-08T03:40:28;3.70;;;1.40;;
77520;SDS011;66633;47.628;19.158;2023-08-08T03:42:53;4.80;;;1.65;;
77520;SDS011;66633;47.628;19.158;2023-08-08T03:45:18;6.10;;;1.50;;
77520;SDS011;66633;47.628;19.158;2023-08-08T03:47:43;3.37;;;1.20;;
77520;SDS011;66633;47.628;19.158;2023-08-08T03:50:09;4.60;;;1.47;;
77520;SDS011;66633;47.628;19.158;2023-08-08T03:52:35;5.88;;;1.50;;
77520;SDS011;66633;47.628;19.158;2023-08-08T03:55:02;2.58;;;1.35;;
77520;SDS011;66633;47.628;19.158;2023-08-08T03:57:28;5.63;;;1.70;;
77520;SDS011;66633;47.628;19.158;2023-08-08T03:59:53;3.03;;;1.43;;
77520;SDS011;66633;47.628;19.158;2023-08-08T04:02:18;3.22;;;1.42;;
77520;SDS011;66633;47.628;19.158;2023-08-08T04:04:44;3.13;;;1.40;;
77520;SDS011;66633;47.628;19.158;2023-08-08T04:07:09;3.85;;;1.90;;
77520;SDS011;66633;47.628;19.158;2023-08-08T04:09:34;3.88;;;1.52;;
77520;SDS011;66633;47.628;19.158;2023-08-08T04:11:59;3.67;;;1.58;;
77520;SDS011;66633;47.628;19.158;2023-08-08T04:14:25;4.43;;;1.73;;
77520;SDS011;66633;47.628;19.158;2023-08-08T04:16:50;3.43;;;1.50;;
77520;SDS011;66633;47.628;19.158;2023-08-08T04:19:15;4.00;;;1.60;;
77520;SDS011;66633;47.628;19.158;2023-08-08T04:21:40;5.60;;;1.58;;
77520;SDS011;66633;47.628;19.158;2023-08-08T04:24:06;5.45;;;1.65;;
77520;SDS011;66633;47.628;19.158;2023-08-08T04:26:32;3.55;;;1.63;;
77520;SDS011;66633;47.628;19.158;2023-08-08T04:28:58;5.80;;;1.73;;
77520;SDS011;66633;47.628;19.158;2023-08-08T04:31:23;4.25;;;1.77;;
77520;SDS011;66633;47.628;19.158;2023-08-08T04:33:50;3.72;;;1.70;;
77520;SDS011;66633;47.628;19.158;2023-08-08T04:36:16;4.40;;;1.70;;
77520;SDS011;66633;47.628;19.158;2023-08-08T04:38:41;5.50;;;1.47;;
77520;SDS011;66633;47.628;19.158;2023-08-08T04:41:06;3.93;;;1.77;;
77520;SDS011;66633;47.628;19.158;2023-08-08T04:43:31;5.57;;;1.93;;
77520;SDS011;66633;47.628;19.158;2023-08-08T04:45:57;3.53;;;1.48;;
77520;SDS011;66633;47.628;19.158;2023-08-08T04:48:22;4.88;;;1.70;;
77520;SDS011;66633;47.628;19.158;2023-08-08T04:50:47;5.53;;;1.80;;
77520;SDS011;66633;47.628;19.158;2023-08-08T04:53:12;4.73;;;1.50;;
77520;SDS011;66633;47.628;19.158;2023-08-08T04:55:38;4.95;;;1.90;;
77520;SDS011;66633;47.628;19.158;2023-08-08T04:58:03;5.68;;;1.80;;
77520;SDS011;66633;47.628;19.158;2023-08-08T05:00:28;6.90;;;2.00;;
77520;SDS011;66633;47.628;19.158;2023-08-08T05:02:54;4.32;;;1.75;;
77520;SDS011;66633;47.628;19.158;2023-08-08T05:05:19;5.18;;;1.70;;
77520;SDS011;66633;47.628;19.158;2023-08-08T05:07:44;5.28;;;1.42;;
77520;SDS011;66633;47.628;19.158;2023-08-08T05:10:10;4.73;;;1.70;;
77520;SDS011;66633;47.628;19.158;2023-08-08T05:12:35;4.43;;;1.60;;
77520;SDS011;66633;47.628;19.158;2023-08-08T05:15:00;5.53;;;2.33;;
77520;SDS011;66633;47.628;19.158;2023-08-08T05:17:25;5.72;;;1.60;;
77520;SDS011;66633;47.628;19.158;2023-08-08T05:19:51;4.90;;;1.83;;
77520;SDS011;66633;47.628;19.158;2023-08-08T05:22:16;5.10;;;1.53;;
77520;SDS011;66633;47.628;19.158;2023-08-08T05:24:41;4.00;;;1.70;;
77520;SDS011;66633;47.628;19.158;2023-08-08T05:27:06;5.13;;;1.83;;
77520;SDS011;66633;47.628;19.158;2023-08-08T05:29:32;4.27;;;1.57;;
77520;SDS011;66633;47.628;19.158;2023-08-08T05:31:57;6.63;;;2.00;;
77520;SDS011;66633;47.628;19.158;2023-08-08T05:34:25;5.15;;;1.90;;
77520;SDS011;66633;47.628;19.158;2023-08-08T05:36:50;3.42;;;1.45;;
77520;SDS011;66633;47.628;19.158;2023-08-08T05:39:16;4.00;;;1.77;;
77520;SDS011;66633;47.628;19.158;2023-08-08T05:41:41;3.83;;;1.67;;
77520;SDS011;66633;47.628;19.158;2023-08-08T05:44:06;4.88;;;1.73;;
77520;SDS011;66633;47.628;19.158;2023-08-08T05:46:31;6.10;;;2.13;;
77520;SDS011;66633;47.628;19.158;2023-08-08T05:48:57;3.87;;;1.80;;
77520;SDS011;66633;47.628;19.158;2023-08-08T05:51:22;3.60;;;1.40;;
77520;SDS011;66633;47.628;19.158;2023-08-08T05:53:47;3.75;;;1.70;;
77520;SDS011;66633;47.628;19.158;2023-08-08T05:56:13;4.57;;;2.00;;
77520;SDS011;66633;47.628;19.158;2023-08-08T05:58:38;4.65;;;1.75;;
77520;SDS011;66633;47.628;19.158;2023-08-08T06:01:03;5.93;;;2.05;;
77520;SDS011;66633;47.628;19.158;2023-08-08T06:03:34;5.50;;;1.88;;
77520;SDS011;66633;47.628;19.158;2023-08-08T06:05:59;5.33;;;2.00;;
77520;SDS011;66633;47.628;19.158;2023-08-08T06:08:24;4.23;;;1.77;;
77520;SDS011;66633;47.628;19.158;2023-08-08T06:10:49;9.30;;;1.73;;
77520;SDS011;66633;47.628;19.158;2023-08-08T06:13:14;5.43;;;1.98;;
77520;SDS011;66633;47.628;19.158;2023-08-08T06:15:40;3.97;;;1.70;;
77520;SDS011;66633;47.628;19.158;2023-08-08T06:18:05;6.57;;;2.10;;
77520;SDS011;66633;47.628;19.158;2023-08-08T06:20:31;3.63;;;1.55;;
77520;SDS011;66633;47.628;19.158;2023-08-08T06:22:56;4.38;;;1.92;;
77520;SDS011;66633;47.628;19.158;2023-08-08T06:25:21;4.22;;;1.70;;
77520;SDS011;66633;47.628;19.158;2023-08-08T06:27:46;3.67;;;1.50;;
77520;SDS011;66633;47.628;19.158;2023-08-08T06:30:12;4.37;;;1.90;;
77520;SDS011;66633;47.628;19.158;2023-08-08T06:32:37;5.70;;;2.00;;
77520;SDS011;66633;47.628;19.158;2023-08-08T06:35:02;4.18;;;1.65;;
77520;SDS011;66633;47.628;19.158;2023-08-08T06:37:28;4.38;;;1.83;;
77520;SDS011;66633;47.628;19.158;2023-08-08T06:39:53;4.37;;;1.83;;
77520;SDS011;66633;47.628;19.158;2023-08-08T06:42:18;4.57;;;1.83;;
77520;SDS011;66633;47.628;19.158;2023-08-08T06:44:44;4.43;;;1.80;;
77520;SDS011;66633;47.628;19.158;2023-08-08T06:47:09;5.07;;;1.90;;
77520;SDS011;66633;47.628;19.158;2023-08-08T06:49:35;5.60;;;2.08;;
77520;SDS011;66633;47.628;19.158;2023-08-08T06:52:01;7.30;;;2.30;;
77520;SDS011;66633;47.628;19.158;2023-08-08T06:54:26;4.22;;;2.05;;
77520;SDS011;66633;47.628;19.158;2023-08-08T06:56:53;7.15;;;2.10;;
77520;SDS011;66633;47.628;19.158;2023-08-08T06:59:19;4.57;;;2.13;;
77520;SDS011;66633;47.628;19.158;2023-08-08T07:01:44;6.93;;;2.00;;
77520;SDS011;66633;47.628;19.158;2023-08-08T07:04:09;5.07;;;1.85;;
77520;SDS011;66633;47.628;19.158;2023-08-08T07:06:35;5.22;;;2.00;;
77520;SDS011;66633;47.628;19.158;2023-08-08T07:09:01;3.97;;;1.85;;
77520;SDS011;66633;47.628;19.158;2023-08-08T07:11:26;4.80;;;1.98;;
77520;SDS011;66633;47.628;19.158;2023-08-08T07:13:52;4.25;;;2.00;;
77520;SDS011;66633;47.628;19.158;2023-08-08T07:16:17;7.33;;;2.20;;
77520;SDS011;66633;47.628;19.158;2023-08-08T07:18:42;6.73;;;2.20;;
77520;SDS011;66633;47.628;19.158;2023-08-08T07:21:07;6.10;;;2.20;;
77520;SDS011;66633;47.628;19.158;2023-08-08T07:23:33;5.50;;;2.10;;
77520;SDS011;66633;47.628;19.158;2023-08-08T07:25:58;5.22;;;2.13;;
77520;SDS011;66633;47.628;19.158;2023-08-08T07:28:23;4.82;;;2.30;;
77520;SDS011;66633;47.628;19.158;2023-08-08T07:30:49;3.47;;;1.83;;
77520;SDS011;66633;47.628;19.158;2023-08-08T07:33:14;6.13;;;1.90;;
77520;SDS011;66633;47.628;19.158;2023-08-08T07:35:39;4.32;;;1.73;;
77520;SDS011;66633;47.628;19.158;2023-08-08T07:38:04;5.65;;;1.77;;
77520;SDS011;66633;47.628;19.158;2023-08-08T07:40:30;4.65;;;1.92;;
77520;SDS011;66633;47.628;19.158;2023-08-08T07:42:56;4.35;;;1.70;;
77520;SDS011;66633;47.628;19.158;2023-08-08T07:45:21;5.87;;;1.93;;
77520;SDS011;66633;47.628;19.158;2023-08-08T07:47:46;6.70;;;2.10;;
77520;SDS011;66633;47.628;19.158;2023-08-08T07:50:11;5.23;;;1.97;;
77520;SDS011;66633;47.628;19.158;2023-08-08T07:52:37;4.68;;;2.03;;
77520;SDS011;66633;47.628;19.158;2023-08-08T07:55:03;5.60;;;2.50;;
77520;SDS011;66633;47.628;19.158;2023-08-08T07:57:29;4.65;;;2.08;;
77520;SDS011;66633;47.628;19.158;2023-08-08T07:59:59;4.47;;;1.90;;
77520;SDS011;66633;47.628;19.158;2023-08-08T08:02:30;4.60;;;1.80;;
77520;SDS011;66633;47.628;19.158;2023-08-08T08:04:55;4.37;;;1.83;;
77520;SDS011;66633;47.628;19.158;2023-08-08T08:07:20;5.20;;;2.03;;
77520;SDS011;66633;47.628;19.158;2023-08-08T08:09:46;5.28;;;2.03;;
77520;SDS011;66633;47.628;19.158;2023-08-08T08:12:11;5.10;;;1.93;;
77520;SDS011;66633;47.628;19.158;2023-08-08T08:14:36;6.93;;;2.10;;
77520;SDS011;66633;47.628;19.158;2023-08-08T08:17:02;5.30;;;1.90;;
77520;SDS011;66633;47.628;19.158;2023-08-08T08:19:28;5.10;;;1.90;;
77520;SDS011;66633;47.628;19.158;2023-08-08T08:21:53;5.17;;;2.20;;
77520;SDS011;66633;47.628;19.158;2023-08-08T08:24:19;7.03;;;2.20;;
77520;SDS011;66633;47.628;19.158;2023-08-08T08:26:45;4.68;;;2.05;;
77520;SDS011;66633;47.628;19.158;2023-08-08T08:29:10;4.00;;;1.70;;
77520;SDS011;66633;47.628;19.158;2023-08-08T08:31:35;4.50;;;1.70;;
77520;SDS011;66633;47.628;19.158;2023-08-08T08:34:02;4.22;;;1.73;;
77520;SDS011;66633;47.628;19.158;2023-08-08T08:36:28;6.85;;;2.10;;
77520;SDS011;66633;47.628;19.158;2023-08-08T08:38:53;4.20;;;1.83;;
77520;SDS011;66633;47.628;19.158;2023-08-08T08:41:18;4.78;;;1.80;;
77520;SDS011;66633;47.628;19.158;2023-08-08T08:43:45;4.25;;;1.67;;
77520;SDS011;66633;47.628;19.158;2023-08-08T08:46:10;5.45;;;1.90;;
77520;SDS011;66633;47.628;19.158;2023-08-08T08:48:36;4.35;;;1.92;;
77520;SDS011;66633;47.628;19.158;2023-08-08T08:51:01;4.93;;;1.90;;
77520;SDS011;66633;47.628;19.158;2023-08-08T08:53:28;5.85;;;2.10;;
77520;SDS011;66633;47.628;19.158;2023-08-08T08:55:53;4.30;;;1.95;;
77520;SDS011;66633;47.628;19.158;2023-08-08T08:58:21;4.68;;;1.92;;
77520;SDS011;66633;47.628;19.158;2023-08-08T09:00:47;4.15;;;2.03;;
77520;SDS011;66633;47.628;19.158;2023-08-08T09:03:12;4.50;;;2.03;;
77520;SDS011;66633;47.628;19.158;2023-08-08T09:05:38;3.97;;;1.70;;
77520;SDS011;66633;47.628;19.158;2023-08-08T09:08:06;4.70;;;2.03;;
77520;SDS011;66633;47.628;19.158;2023-08-08T09:10:31;7.13;;;2.17;;
77520;SDS011;66633;47.628;19.158;2023-08-08T09:12:57;4.93;;;2.10;;
77520;SDS011;66633;47.628;19.158;2023-08-08T09:15:30;6.90;;;2.40;;
77520;SDS011;66633;47.628;19.158;2023-08-08T09:20:46;4.60;;;2.00;;
77520;SDS011;66633;47.628;19.158;2023-08-08T09:25:36;4.17;;;1.90;;
77520;SDS011;66633;47.628;19.158;2023-08-08T09:28:02;3.77;;;1.87;;
77520;SDS011;66633;47.628;19.158;2023-08-08T09:30:27;5.05;;;2.33;;
77520;SDS011;66633;47.628;19.158;2023-08-08T09:32:53;5.73;;;2.27;;
77520;SDS011;66633;47.628;19.158;2023-08-08T09:35:22;5.03;;;2.22;;
77520;SDS011;66633;47.628;19.158;2023-08-08T09:37:48;4.88;;;2.10;;
77520;SDS011;66633;47.628;19.158;2023-08-08T09:40:13;5.53;;;2.08;;
77520;SDS011;66633;47.628;19.158;2023-08-08T09:42:41;6.15;;;1.92;;
77520;SDS011;66633;47.628;19.158;2023-08-08T09:45:07;5.45;;;2.40;;
77520;SDS011;66633;47.628;19.158;2023-08-08T09:47:33;5.75;;;2.05;;
77520;SDS011;66633;47.628;19.158;2023-08-08T09:49:59;5.50;;;1.77;;
77520;SDS011;66633;47.628;19.158;2023-08-08T09:52:26;4.93;;;1.83;;
77520;SDS011;66633;47.628;19.158;2023-08-08T09:54:52;5.95;;;2.30;;
77520;SDS011;66633;47.628;19.158;2023-08-08T09:57:17;5.43;;;1.98;;
77520;SDS011;66633;47.628;19.158;2023-08-08T09:59:43;7.57;;;2.40;;
77520;SDS011;66633;47.628;19.158;2023-08-08T10:02:09;5.80;;;2.40;;
77520;SDS011;66633;47.628;19.158;2023-08-08T10:04:38;5.57;;;2.05;;
77520;SDS011;66633;47.628;19.158;2023-08-08T10:07:03;4.47;;;2.00;;
77520;SDS011;66633;47.628;19.158;2023-08-08T10:09:29;5.40;;;2.13;;
77520;SDS011;66633;47.628;19.158;2023-08-08T10:11:54;6.32;;;2.47;;
77520;SDS011;66633;47.628;19.158;2023-08-08T10:14:20;4.55;;;2.10;;
77520;SDS011;66633;47.628;19.158;2023-08-08T10:16:52;5.32;;;2.00;;
77520;SDS011;66633;47.628;19.158;2023-08-08T10:19:21;5.15;;;2.22;;
77520;SDS011;66633;47.628;19.158;2023-08-08T10:21:46;6.03;;;2.45;;
77520;SDS011;66633;47.628;19.158;2023-08-08T10:24:11;5.15;;;2.20;;
77520;SDS011;66633;47.628;19.158;2023-08-08T10:29:23;4.85;;;1.92;;
77520;SDS011;66633;47.628;19.158;2023-08-08T10:32:02;4.43;;;2.03;;
77520;SDS011;66633;47.628;19.158;2023-08-08T10:34:41;5.30;;;2.33;;
77520;SDS011;66633;47.628;19.158;2023-08-08T10:37:10;5.97;;;2.28;;
77520;SDS011;66633;47.628;19.158;2023-08-08T10:39:36;5.57;;;2.40;;
77520;SDS011;66633;47.628;19.158;2023-08-08T10:42:03;5.07;;;2.22;;
77520;SDS011;66633;47.628;19.158;2023-08-08T10:44:29;4.85;;;2.13;;
77520;SDS011;66633;47.628;19.158;2023-08-08T10:46:55;5.32;;;2.17;;
77520;SDS011;66633;47.628;19.158;2023-08-08T10:49:20;6.35;;;2.50;;
77520;SDS011;66633;47.628;19.158;2023-08-08T10:51:46;4.50;;;2.15;;
77520;SDS011;66633;47.628;19.158;2023-08-08T10:54:16;4.78;;;2.40;;
77520;SDS011;66633;47.628;19.158;2023-08-08T10:59:16;6.20;;;2.15;;
77520;SDS011;66633;47.628;19.158;2023-08-08T11:01:42;5.00;;;2.13;;
77520;SDS011;66633;47.628;19.158;2023-08-08T11:04:10;4.53;;;2.20;;
77520;SDS011;66633;47.628;19.158;2023-08-08T11:06:35;5.50;;;2.50;;
77520;SDS011;66633;47.628;19.158;2023-08-08T11:09:01;5.28;;;2.38;;
77520;SDS011;66633;47.628;19.158;2023-08-08T11:11:27;3.88;;;1.80;;
77520;SDS011;66633;47.628;19.158;2023-08-08T11:13:53;4.70;;;2.20;;
77520;SDS011;66633;47.628;19.158;2023-08-08T11:16:18;4.28;;;2.10;;
77520;SDS011;66633;47.628;19.158;2023-08-08T11:18:45;4.45;;;2.17;;
77520;SDS011;66633;47.628;19.158;2023-08-08T11:21:10;5.43;;;2.15;;
77520;SDS011;66633;47.628;19.158;2023-08-08T11:23:36;4.60;;;2.28;;
77520;SDS011;66633;47.628;19.158;2023-08-08T11:26:03;3.72;;;2.10;;
77520;SDS011;66633;47.628;19.158;2023-08-08T11:28:28;4.80;;;2.30;;
77520;SDS011;66633;47.628;19.158;2023-08-08T11:30:54;4.63;;;2.15;;
77520;SDS011;66633;47.628;19.158;2023-08-08T11:33:20;5.25;;;2.13;;
77520;SDS011;66633;47.628;19.158;2023-08-08T11:35:45;5.78;;;2.20;;
77520;SDS011;66633;47.628;19.158;2023-08-08T11:38:11;6.40;;;2.17;;
77520;SDS011;66633;47.628;19.158;2023-08-08T11:40:38;5.63;;;2.30;;
77520;SDS011;66633;47.628;19.158;2023-08-08T11:43:03;5.18;;;2.22;;
77520;SDS011;66633;47.628;19.158;2023-08-08T11:45:29;4.78;;;2.20;;
77520;SDS011;66633;47.628;19.158;2023-08-08T11:47:55;5.03;;;2.35;;
77520;SDS011;66633;47.628;19.158;2023-08-08T11:50:22;6.53;;;2.03;;
77520;SDS011;66633;47.628;19.158;2023-08-08T11:52:51;5.57;;;2.30;;
77520;SDS011;66633;47.628;19.158;2023-08-08T11:55:18;4.43;;;2.20;;
77520;SDS011;66633;47.628;19.158;2023-08-08T11:57:47;4.90;;;2.33;;
77520;SDS011;66633;47.628;19.158;2023-08-08T12:00:13;5.10;;;2.00;;
77520;SDS011;66633;47.628;19.158;2023-08-08T12:02:39;4.70;;;2.20;;
77520;SDS011;66633;47.628;19.158;2023-08-08T12:05:08;4.50;;;2.13;;
77520;SDS011;66633;47.628;19.158;2023-08-08T12:07:36;4.80;;;2.15;;
77520;SDS011;66633;47.628;19.158;2023-08-08T12:10:05;5.45;;;2.33;;
77520;SDS011;66633;47.628;19.158;2023-08-08T12:12:33;6.43;;;2.30;;
77520;SDS011;66633;47.628;19.158;2023-08-08T12:15:05;5.20;;;2.20;;
77520;SDS011;66633;47.628;19.158;2023-08-08T12:17:31;4.97;;;2.28;;
77520;SDS011;66633;47.628;19.158;2023-08-08T12:19:58;5.30;;;2.23;;
77520;SDS011;66633;47.628;19.158;2023-08-08T12:22:23;4.45;;;2.05;;
77520;SDS011;66633;47.628;19.158;2023-08-08T12:24:49;4.77;;;2.07;;
77520;SDS011;66633;47.628;19.158;2023-08-08T12:27:14;5.28;;;2.08;;
77520;SDS011;66633;47.628;19.158;2023-08-08T12:29:39;4.57;;;2.00;;
77520;SDS011;66633;47.628;19.158;2023-08-08T12:32:05;4.50;;;2.00;;
77520;SDS011;66633;47.628;19.158;2023-08-08T12:34:32;5.43;;;2.30;;
77520;SDS011;66633;47.628;19.158;2023-08-08T12:36:58;5.38;;;1.90;;
77520;SDS011;66633;47.628;19.158;2023-08-08T12:39:23;6.37;;;2.30;;
77520;SDS011;66633;47.628;19.158;2023-08-08T12:41:48;4.93;;;2.07;;
77520;SDS011;66633;47.628;19.158;2023-08-08T12:44:14;4.85;;;2.15;;
77520;SDS011;66633;47.628;19.158;2023-08-08T12:46:40;4.90;;;2.50;;
77520;SDS011;66633;47.628;19.158;2023-08-08T12:49:05;5.20;;;2.13;;
77520;SDS011;66633;47.628;19.158;2023-08-08T12:51:30;4.20;;;1.97;;
77520;SDS011;66633;47.628;19.158;2023-08-08T12:53:56;4.37;;;1.93;;
77520;SDS011;66633;47.628;19.158;2023-08-08T12:56:21;4.70;;;2.27;;
77520;SDS011;66633;47.628;19.158;2023-08-08T12:58:46;4.20;;;2.00;;
77520;SDS011;66633;47.628;19.158;2023-08-08T13:01:11;5.50;;;2.50;;
77520;SDS011;66633;47.628;19.158;2023-08-08T13:03:36;5.83;;;2.23;;
77520;SDS011;66633;47.628;19.158;2023-08-08T13:06:02;5.40;;;2.20;;
77520;SDS011;66633;47.628;19.158;2023-08-08T13:08:27;4.80;;;2.33;;
77520;SDS011;66633;47.628;19.158;2023-08-08T13:10:52;4.80;;;2.40;;
77520;SDS011;66633;47.628;19.158;2023-08-08T13:13:18;4.25;;;2.17;;
77520;SDS011;66633;47.628;19.158;2023-08-08T13:15:45;5.45;;;2.28;;
77520;SDS011;66633;47.628;19.158;2023-08-08T13:18:12;4.38;;;2.00;;
77520;SDS011;66633;47.628;19.158;2023-08-08T13:20:37;4.83;;;2.20;;
77520;SDS011;66633;47.628;19.158;2023-08-08T13:23:02;5.70;;;2.17;;
77520;SDS011;66633;47.628;19.158;2023-08-08T13:25:29;3.75;;;1.90;;
77520;SDS011;66633;47.628;19.158;2023-08-08T13:27:56;4.68;;;2.03;;
77520;SDS011;66633;47.628;19.158;2023-08-08T13:30:21;5.85;;;2.15;;
77520;SDS011;66633;47.628;19.158;2023-08-08T13:32:46;5.70;;;2.10;;
77520;SDS011;66633;47.628;19.158;2023-08-08T13:35:12;5.03;;;2.30;;
77520;SDS011;66633;47.628;19.158;2023-08-08T13:37:37;5.40;;;2.67;;
77520;SDS011;66633;47.628;19.158;2023-08-08T13:40:02;5.60;;;2.47;;
77520;SDS011;66633;47.628;19.158;2023-08-08T13:42:28;4.53;;;2.38;;
77520;SDS011;66633;47.628;19.158;2023-08-08T13:44:53;5.53;;;2.20;;
77520;SDS011;66633;47.628;19.158;2023-08-08T13:47:21;5.57;;;2.40;;
77520;SDS011;66633;47.628;19.158;2023-08-08T13:49:46;4.83;;;2.40;;
77520;SDS011;66633;47.628;19.158;2023-08-08T13:52:12;5.30;;;2.20;;
77520;SDS011;66633;47.628;19.158;2023-08-08T13:54:38;4.05;;;2.00;;
77520;SDS011;66633;47.628;19.158;2023-08-08T13:57:03;5.90;;;2.40;;
77520;SDS011;66633;47.628;19.158;2023-08-08T13:59:28;4.53;;;2.35;;
77520;SDS011;66633;47.628;19.158;2023-08-08T14:01:53;5.97;;;2.43;;
77520;SDS011;66633;47.628;19.158;2023-08-08T14:04:19;5.63;;;2.27;;
77520;SDS011;66633;47.628;19.158;2023-08-08T14:06:44;4.60;;;2.33;;
77520;SDS011;66633;47.628;19.158;2023-08-08T14:09:10;6.88;;;2.38;;
77520;SDS011;66633;47.628;19.158;2023-08-08T14:11:35;4.32;;;2.03;;
77520;SDS011;66633;47.628;19.158;2023-08-08T14:14:00;4.97;;;2.07;;
77520;SDS011;66633;47.628;19.158;2023-08-08T14:16:25;5.00;;;2.30;;
77520;SDS011;66633;47.628;19.158;2023-08-08T14:18:51;3.97;;;2.13;;
77520;SDS011;66633;47.628;19.158;2023-08-08T14:21:19;5.55;;;2.03;;
77520;SDS011;66633;47.628;19.158;2023-08-08T14:23:44;4.90;;;1.83;;
77520;SDS011;66633;47.628;19.158;2023-08-08T14:26:10;4.63;;;2.10;;
77520;SDS011;66633;47.628;19.158;2023-08-08T14:28:35;4.93;;;2.23;;
77520;SDS011;66633;47.628;19.158;2023-08-08T14:31:00;6.47;;;2.63;;
77520;SDS011;66633;47.628;19.158;2023-08-08T14:33:29;3.75;;;1.92;;
77520;SDS011;66633;47.628;19.158;2023-08-08T14:35:55;4.65;;;1.77;;